Tropical Cyclones
[Index]
Main Index Home Page Stock Weather Photos Extreme Storms Discussion Storm News and Storm Chasing Reports Tropical Cyclones / Hurricanes / Typhoons Weather Data and Links Wild Fires / Bushfires Weather Observation Techniques Weather Picture Catalogue Tornado Pictures and Reports Stock Video Footage and DVDs for sale
Season 2017-2018 Tropical Cyclone AVA Track Map
Season 2017-2018 Summaries (Operational Data): [AU] [SIO] [SPAC] [SH]
<<- Previous TC | 2017-2018 Season | Next TC ->>

click for intensity scale information  Lat/long Grid: Show Hide

 Date Labels: Show Hide

Operational Tropical Cyclone Data : JTWC Advisories

Name: AVA
Number: 1803

25 Dec 2017 06:00 UTC to 09 Jan 2018 18:00 UTC

    date/time    lat    long     hPa   cat  kts
2017-12-25 06   11.3    70.2    1010         15          
2017-12-25 18    8.9    69.6    1008         15          
2017-12-26 06    8.4    69.4    1007         15          
2017-12-27 00    8.3    70.3    1010         15          
2017-12-27 06    8.2    69.6    1010         15          
2017-12-27 18    9.9    68.1    1007         20          
2017-12-28 00    9.6    67.8    1007         20          
2017-12-28 06   11.0    68.0    1006         20          
2017-12-28 12   11.1    67.5    1005         20          
2017-12-28 18   10.9    67.4    1004         25          
2017-12-29 00   11.1    67.0    1004         25          
2017-12-29 06   11.3    67.1    1004         25          
2017-12-29 12   11.5    66.9    1005         20          
2017-12-29 18   12.1    66.2    1004         25          
2017-12-30 00   12.1    65.5    1004         25          
2017-12-30 06   12.2    64.8    1004         25          
2017-12-30 12   12.4    64.2    1004         25          
2017-12-30 18   12.7    63.7    1008         25          
2017-12-31 00   13.0    63.2    1005         25          
2017-12-31 06   13.5    62.6    1004         25          
2017-12-31 12   13.8    62.2    1004         25          
2017-12-31 18   14.1    61.6    1007         25          
2018-01-01 00   14.3    61.0    1006         25          
2018-01-01 06   14.6    60.0    1006         25          
2018-01-01 12   14.9    59.2    1007         25          
2018-01-01 18   15.2    57.9    1006         25          
2018-01-02 00   15.3    56.3    1006         25          
2018-01-02 06   15.4    55.0    1004         25          
2018-01-02 12   15.4    54.0    1002         30          
2018-01-02 18   15.4    53.3    1001    1    35          
2018-01-03 00   15.2    52.6     997    1    40          
2018-01-03 06   15.4    52.9     997    1    40          
2018-01-03 12   16.0    53.1     995    1    40          
2018-01-03 18   16.7    52.9     993    1    40          
2018-01-04 00   17.3    52.5     997    1    45          
2018-01-04 06   17.3    52.0     985    2    50          
2018-01-04 12   17.4    51.4     988    2    55          
2018-01-04 18   17.3    51.0     986    2    60          
2018-01-05 00   17.3    50.6     975    3    75          
2018-01-05 06   17.9    50.0     958    4    95          
2018-01-05 12   18.2    49.4     959    4    90          
2018-01-05 18   18.5    48.9     977    3    65          
2018-01-06 00   19.1    48.3     980    2    60          
2018-01-06 06   19.6    47.9     986    2    55          
2018-01-06 12   20.3    47.8     985    2    50          
2018-01-06 18   21.3    48.1     992    1    40          
2018-01-07 00   22.1    48.4     992    1    35          
2018-01-07 06   22.8    48.8     991    1    35          
2018-01-07 12   23.4    49.0     988    1    35          
2018-01-07 18   24.2    49.0     985    1    40          
2018-01-08 00   24.7    49.0     985    1    40          
2018-01-08 06   25.7    49.2     983    1    40          
2018-01-08 12   26.8    48.3     981    1    40          
2018-01-08 18   27.3    46.8     981    1    40          
2018-01-08 21   26.9    47.0     993    1    40          
2018-01-09 00   27.0    47.2     987    1    35          
2018-01-09 06   28.7    48.2     989    1    35          
2018-01-09 12   30.7    48.3    1000         30          
2018-01-09 18   32.3    49.3     994         30          
Winds are 10-min average.

Tropical cyclone tracks developed by Michael Bath using operational warnings and advisories and Google Maps.


[Australian Severe Weather index] [Copyright Notice] [Email Contacts] [Search This Site] [Privacy Policy]
Document: tropical_cyclone_ava.htm Updated: 11 March 2020